Time;durP1;ratioP1;P1;durP2;ratioP2;P2;SDS_P1;SDS_P2;PMS_P1;PMS_P2;Temp;Humidity;BMP_temperature;BMP_pressure;BME280_temperature;BME280_humidity;BME280_pressure;Samples;Min_cycle;Max_cycle;Signal;HPM_P1;HPM_P2
2021/12/26 00:00:53;;;;;;;6.68;5.97;;;-0.60;99.90;;;;;;5074651;28;20044;-58
2021/12/26 00:03:23;;;;;;;6.65;5.93;;;-0.70;99.90;;;;;;5092853;28;20077;-58
2021/12/26 00:05:50;;;;;;;11.25;6.47;;;-0.70;99.90;;;;;;5093127;28;20054;-58
2021/12/26 00:08:16;;;;;;;6.82;6.13;;;-0.70;99.90;;;;;;5092720;28;20061;-57
2021/12/26 00:10:41;;;;;;;8.02;6.80;;;-0.70;99.90;;;;;;5092682;28;20502;-58
2021/12/26 00:13:07;;;;;;;7.55;6.75;;;-0.70;99.90;;;;;;5092910;28;20100;-58
2021/12/26 00:15:33;;;;;;;7.57;6.53;;;-0.80;99.90;;;;;;5092636;28;20031;-58
2021/12/26 00:17:58;;;;;;;7.72;6.38;;;-0.80;99.90;;;;;;5092804;28;20024;-58
2021/12/26 00:20:24;;;;;;;7.45;6.75;;;-0.80;99.90;;;;;;5092245;28;20106;-58
2021/12/26 00:22:50;;;;;;;6.70;6.10;;;-0.80;99.90;;;;;;5092347;28;20104;-58
2021/12/26 00:25:16;;;;;;;8.60;7.38;;;-0.70;99.90;;;;;;5092413;28;20432;-58
2021/12/26 00:27:43;;;;;;;7.45;6.60;;;-0.70;99.90;;;;;;5091768;28;20071;-58
2021/12/26 00:30:18;;;;;;;7.57;6.85;;;-0.70;99.90;;;;;;5092288;28;20078;-58
2021/12/26 00:32:45;;;;;;;8.05;7.25;;;-0.70;99.90;;;;;;5092281;28;20024;-58
2021/12/26 00:35:13;;;;;;;7.25;6.10;;;-0.70;99.90;;;;;;5091974;28;20036;-58
2021/12/26 00:37:40;;;;;;;7.78;6.97;;;-0.60;99.90;;;;;;5092275;28;20532;-58
2021/12/26 00:40:08;;;;;;;7.22;6.53;;;-0.70;99.90;;;;;;5091834;28;20024;-58
2021/12/26 00:42:33;;;;;;;6.60;5.93;;;-0.80;99.90;;;;;;5091659;28;20032;-58
2021/12/26 00:44:59;;;;;;;8.43;7.22;;;-0.70;99.90;;;;;;5091938;28;20569;-58
2021/12/26 00:47:29;;;;;;;8.02;6.78;;;-0.80;99.90;;;;;;5064742;28;20051;-58
2021/12/26 00:49:56;;;;;;;8.55;6.43;;;-0.80;99.90;;;;;;5071896;28;20357;-58
2021/12/26 00:52:21;;;;;;;7.47;6.65;;;-0.80;99.90;;;;;;5087789;28;20020;-58
2021/12/26 00:54:47;;;;;;;8.15;7.35;;;-0.80;99.90;;;;;;5070048;28;20067;-58
2021/12/26 00:57:13;;;;;;;8.10;7.30;;;-0.80;99.90;;;;;;5071560;28;20519;-58
2021/12/26 00:59:38;;;;;;;8.88;7.00;;;-0.80;99.90;;;;;;5071677;28;20036;-58
2021/12/26 01:02:04;;;;;;;7.88;7.07;;;-0.70;99.90;;;;;;5071815;28;20028;-58
2021/12/26 01:04:30;;;;;;;7.07;6.35;;;-0.80;99.90;;;;;;5071091;28;20028;-58
2021/12/26 01:06:56;;;;;;;8.05;7.07;;;-0.90;99.90;;;;;;5071346;28;20028;-57
2021/12/26 01:09:26;;;;;;;7.03;6.32;;;-0.90;99.90;;;;;;5071204;28;20027;-58
2021/12/26 01:11:55;;;;;;;8.27;6.75;;;-0.80;99.90;;;;;;5071427;28;20020;-56
2021/12/26 01:14:30;;;;;;;7.80;6.28;;;-0.80;99.90;;;;;;5071183;28;20067;-58
2021/12/26 01:17:05;;;;;;;8.07;6.63;;;-0.90;99.90;;;;;;5071431;28;20039;-58
2021/12/26 01:19:41;;;;;;;7.97;6.57;;;-0.80;99.90;;;;;;5071193;28;20020;-58
2021/12/26 01:22:07;;;;;;;8.63;6.60;;;-0.80;99.90;;;;;;5071382;28;20033;-58
2021/12/26 01:24:33;;;;;;;7.10;6.40;;;-0.80;99.90;;;;;;5070870;28;20017;-58
2021/12/26 01:26:58;;;;;;;8.35;6.65;;;-0.90;99.90;;;;;;5071144;28;20028;-58
2021/12/26 01:29:24;;;;;;;11.70;6.47;;;-1.00;99.90;;;;;;5071019;28;20495;-58
2021/12/26 01:31:50;;;;;;;7.60;6.80;;;-1.00;99.90;;;;;;5071102;28;20021;-57
2021/12/26 01:34:15;;;;;;;8.98;6.32;;;-1.00;99.90;;;;;;5070809;28;20109;-58
2021/12/26 01:36:41;;;;;;;7.65;6.60;;;-0.90;99.90;;;;;;5070975;28;20036;-58
2021/12/26 01:39:09;;;;;;;7.20;6.50;;;-1.00;99.90;;;;;;5071287;28;20089;-57
2021/12/26 01:41:39;;;;;;;7.63;6.13;;;-1.00;99.90;;;;;;5051077;28;20021;-58
2021/12/26 01:44:08;;;;;;;7.20;6.43;;;-0.90;99.90;;;;;;5050107;28;20116;-57
2021/12/26 01:46:34;;;;;;;6.85;6.25;;;-0.90;99.90;;;;;;5050464;28;20029;-58
2021/12/26 01:49:16;;;;;;;6.47;5.88;;;-0.90;99.90;;;;;;5053338;28;20032;-58
2021/12/26 01:51:43;;;;;;;7.05;6.28;;;-0.80;99.90;;;;;;5070260;28;20380;-56
2021/12/26 01:54:11;;;;;;;6.63;5.75;;;-0.80;99.90;;;;;;5074172;28;20368;-57
2021/12/26 01:56:41;;;;;;;6.97;6.13;;;-0.80;99.90;;;;;;5090586;28;20413;-58
2021/12/26 01:59:09;;;;;;;7.65;6.20;;;-0.90;99.90;;;;;;5090606;28;20020;-58
2021/12/26 02:01:34;;;;;;;6.68;5.88;;;-0.90;99.90;;;;;;5070618;28;20407;-58
2021/12/26 02:04:04;;;;;;;7.55;6.72;;;-0.80;99.90;;;;;;5070292;28;20047;-57
2021/12/26 02:06:30;;;;;;;8.18;6.82;;;-0.90;99.90;;;;;;5088337;28;20499;-58
2021/12/26 02:08:56;;;;;;;7.97;5.53;;;-0.90;99.90;;;;;;5090774;28;20084;-58
2021/12/26 02:11:22;;;;;;;8.63;6.28;;;-0.90;99.90;;;;;;5090432;28;20016;-58
2021/12/26 02:13:47;;;;;;;7.57;6.35;;;-0.90;99.90;;;;;;5090870;28;20418;-58
2021/12/26 02:16:14;;;;;;;6.68;5.97;;;-0.90;99.90;;;;;;5090495;28;20430;-57
2021/12/26 02:18:40;;;;;;;7.57;6.38;;;-0.90;99.90;;;;;;5090665;28;20431;-58
2021/12/26 02:23:45;;;;;;;7.47;6.20;;;-0.90;99.90;;;;;;5090448;28;20034;-58
2021/12/26 02:28:45;;;;;;;8.20;6.53;;;-0.90;99.90;;;;;;5090516;28;20675;-58
2021/12/26 02:31:11;;;;;;;7.70;6.90;;;-1.00;99.90;;;;;;5090640;28;20024;-58
2021/12/26 02:33:37;;;;;;;8.50;7.15;;;-0.90;99.90;;;;;;5090275;28;20021;-57
2021/12/26 02:36:04;;;;;;;8.43;6.70;;;-0.90;99.90;;;;;;5090439;28;20402;-57
2021/12/26 02:38:30;;;;;;;12.00;7.53;;;-0.90;99.90;;;;;;5090255;28;20047;-57
2021/12/26 02:40:57;;;;;;;9.15;7.03;;;-1.10;99.90;;;;;;5090279;28;20394;-57
2021/12/26 02:43:25;;;;;;;9.70;7.43;;;-1.20;99.90;;;;;;5090232;28;20028;-58
2021/12/26 02:45:51;;;;;;;8.82;7.05;;;-1.10;99.90;;;;;;5090152;28;20043;-57
2021/12/26 02:48:17;;;;;;;12.82;8.32;;;-1.10;99.90;;;;;;5090249;28;20027;-57
2021/12/26 02:50:45;;;;;;;11.20;8.48;;;-1.10;99.90;;;;;;5090374;28;20525;-58
2021/12/26 02:53:13;;;;;;;17.08;9.00;;;-1.20;99.90;;;;;;5090111;28;20020;-57
2021/12/26 02:55:39;;;;;;;13.30;8.73;;;-1.20;99.90;;;;;;5091326;28;20135;-58
2021/12/26 02:58:07;;;;;;;12.73;9.50;;;-1.30;99.90;;;;;;5075958;28;20028;-58
2021/12/26 03:00:44;;;;;;;9.95;8.88;;;-1.30;99.90;;;;;;5093843;28;20492;-57
2021/12/26 03:03:11;;;;;;;12.20;9.40;;;-1.30;99.90;;;;;;5093981;28;20048;-57
2021/12/26 03:05:40;;;;;;;15.77;8.63;;;-1.30;99.90;;;;;;5094019;28;20024;-56
2021/12/26 03:08:08;;;;;;;10.13;8.48;;;-1.30;99.90;;;;;;5075041;28;20536;-58
2021/12/26 03:10:34;;;;;;;11.27;8.93;;;-1.40;99.90;;;;;;5093556;28;20027;-57
2021/12/26 03:13:02;;;;;;;14.77;10.02;;;-1.40;99.90;;;;;;5094069;28;20017;-58
2021/12/26 03:15:30;;;;;;;13.57;9.38;;;-1.40;99.90;;;;;;5092843;28;20017;-57
2021/12/26 03:17:56;;;;;;;12.95;9.98;;;-1.40;99.90;;;;;;5093784;28;20016;-57
2021/12/26 03:20:25;;;;;;;13.63;10.23;;;-1.40;99.90;;;;;;5093654;28;20058;-57
2021/12/26 03:22:51;;;;;;;13.02;9.30;;;-1.30;99.90;;;;;;5073603;28;20020;-57
2021/12/26 03:25:22;;;;;;;15.75;10.85;;;-1.40;99.90;;;;;;5073294;28;20146;-58
2021/12/26 03:27:49;;;;;;;14.77;9.80;;;-1.40;99.90;;;;;;5073408;28;20410;-58
2021/12/26 03:30:22;;;;;;;17.40;11.00;;;-1.40;99.90;;;;;;5073151;28;20467;-57
2021/12/26 03:32:48;;;;;;;15.77;10.40;;;-1.40;99.90;;;;;;5075495;28;20495;-58
2021/12/26 03:35:14;;;;;;;12.82;9.10;;;-1.50;99.90;;;;;;5093433;28;20032;-57
2021/12/26 03:37:41;;;;;;;12.90;9.52;;;-1.40;99.90;;;;;;5093349;28;20031;-57
2021/12/26 03:40:09;;;;;;;14.52;10.18;;;-1.50;99.90;;;;;;5093475;28;20094;-58
2021/12/26 03:42:35;;;;;;;17.45;10.18;;;-1.50;99.90;;;;;;5093427;28;21214;-58
2021/12/26 03:45:02;;;;;;;13.77;9.57;;;-1.50;99.90;;;;;;5093385;28;20687;-58
2021/12/26 03:47:29;;;;;;;17.00;10.68;;;-1.50;99.90;;;;;;5092761;28;20073;-58
2021/12/26 03:49:55;;;;;;;16.15;10.52;;;-1.50;99.90;;;;;;5093231;28;20107;-58
2021/12/26 03:52:26;;;;;;;14.38;9.60;;;-1.50;99.90;;;;;;5093130;28;20095;-57
2021/12/26 03:54:53;;;;;;;13.80;10.55;;;-1.40;99.90;;;;;;5092733;28;20048;-58
2021/12/26 03:57:18;;;;;;;14.75;10.05;;;-1.40;99.90;;;;;;5074790;28;20028;-58
2021/12/26 03:59:44;;;;;;;11.07;9.88;;;-1.40;99.90;;;;;;5093126;28;20023;-57
2021/12/26 04:02:11;;;;;;;15.32;10.60;;;-1.40;99.90;;;;;;5074600;28;20035;-58
2021/12/26 04:04:37;;;;;;;24.40;10.50;;;-1.40;99.90;;;;;;5092954;28;20031;-57
2021/12/26 04:07:02;;;;;;;16.65;10.40;;;-1.40;99.90;;;;;;5092367;28;20036;-58
2021/12/26 04:09:28;;;;;;;16.25;10.35;;;-1.40;99.90;;;;;;5074359;28;20054;-57
2021/12/26 04:11:54;;;;;;;12.93;9.20;;;-1.40;99.90;;;;;;5092732;28;20080;-58
2021/12/26 04:14:20;;;;;;;15.02;10.55;;;-1.40;99.90;;;;;;5092632;28;20487;-57
2021/12/26 04:16:46;;;;;;;14.23;9.88;;;-1.40;99.90;;;;;;5092551;28;20035;-58
2021/12/26 04:19:12;;;;;;;17.30;10.70;;;-1.40;99.90;;;;;;5092256;28;20020;-57
2021/12/26 04:21:37;;;;;;;19.50;9.82;;;-1.40;99.90;;;;;;5092797;28;20059;-54
2021/12/26 04:24:04;;;;;;;15.27;10.65;;;-1.40;99.90;;;;;;5092317;28;20024;-57
2021/12/26 04:26:30;;;;;;;15.30;9.88;;;-1.50;99.90;;;;;;5092047;28;20059;-56
2021/12/26 04:28:56;;;;;;;14.23;10.40;;;-1.50;99.90;;;;;;5092397;28;20024;-56
2021/12/26 04:31:22;;;;;;;16.33;10.45;;;-1.50;99.90;;;;;;5073527;28;20580;-58
2021/12/26 04:33:48;;;;;;;14.25;9.85;;;-1.50;99.90;;;;;;5091967;28;20031;-57
2021/12/26 04:36:14;;;;;;;14.38;10.40;;;-1.50;99.90;;;;;;5091951;28;20085;-56
2021/12/26 04:38:41;;;;;;;14.63;11.00;;;-1.50;99.90;;;;;;5092188;28;20028;-58
2021/12/26 04:41:07;;;;;;;16.13;10.10;;;-1.50;99.90;;;;;;5091819;28;20031;-56
2021/12/26 04:43:35;;;;;;;13.52;9.57;;;-1.50;99.90;;;;;;5091548;28;20119;-57
2021/12/26 04:46:05;;;;;;;17.40;11.23;;;-1.50;99.90;;;;;;5091810;28;20058;-57
2021/12/26 04:48:31;;;;;;;16.38;10.10;;;-1.40;99.90;;;;;;5091046;28;20095;-57
2021/12/26 04:50:57;;;;;;;17.15;10.30;;;-1.40;99.90;;;;;;5091995;28;20016;-58
2021/12/26 04:53:22;;;;;;;19.15;11.73;;;-1.40;99.90;;;;;;5091323;28;20536;-58
2021/12/26 04:55:48;;;;;;;16.50;10.65;;;-1.40;99.90;;;;;;5091136;28;20039;-58
2021/12/26 04:58:14;;;;;;;15.23;10.23;;;-1.40;99.90;;;;;;5091693;28;20020;-57
2021/12/26 05:00:40;;;;;;;16.02;9.32;;;-1.50;99.90;;;;;;5091501;28;20028;-57
2021/12/26 05:03:07;;;;;;;13.15;9.77;;;-1.50;99.90;;;;;;5091798;28;20028;-57
2021/12/26 05:05:34;;;;;;;16.83;11.07;;;-1.60;99.90;;;;;;5090880;28;20035;-57
2021/12/26 05:08:00;;;;;;;15.35;11.20;;;-1.60;99.90;;;;;;5091682;28;20439;-57
2021/12/26 05:10:28;;;;;;;16.85;9.82;;;-1.60;99.90;;;;;;5091197;28;20085;-57
2021/12/26 05:12:54;;;;;;;16.05;9.65;;;-1.50;99.90;;;;;;5073325;28;20016;-58
2021/12/26 05:15:21;;;;;;;13.43;10.18;;;-1.60;99.90;;;;;;5090941;28;20391;-57
2021/12/26 05:17:49;;;;;;;16.58;10.65;;;-1.50;99.90;;;;;;5091319;28;20286;-58
2021/12/26 05:20:18;;;;;;;17.60;11.05;;;-1.50;99.90;;;;;;5090093;28;20394;-57
2021/12/26 05:22:44;;;;;;;15.40;10.23;;;-1.60;99.90;;;;;;5091688;28;20383;-57
2021/12/26 05:25:10;;;;;;;18.25;10.88;;;-1.60;99.90;;;;;;5090940;28;20032;-57
2021/12/26 05:27:37;;;;;;;18.20;10.00;;;-1.60;99.90;;;;;;5090940;28;20538;-58
2021/12/26 05:30:05;;;;;;;15.77;9.93;;;-1.60;99.90;;;;;;5091281;28;20103;-57
2021/12/26 05:32:30;;;;;;;19.70;10.57;;;-1.50;99.90;;;;;;5091259;28;20157;-58
2021/12/26 05:34:56;;;;;;;15.95;10.40;;;-1.50;99.90;;;;;;5073093;28;20115;-57
2021/12/26 05:37:22;;;;;;;22.02;10.95;;;-1.50;99.90;;;;;;5091032;28;20038;-58
2021/12/26 05:39:47;;;;;;;29.63;19.25;;;-1.50;99.90;;;;;;5091432;28;20039;-57
2021/12/26 05:42:16;;;;;;;341.83;182.30;;;-1.50;99.90;;;;;;5090723;28;20035;-58
2021/12/26 05:44:46;;;;;;;274.17;129.45;;;-1.60;99.90;;;;;;5091188;28;20026;-57
2021/12/26 05:47:13;;;;;;;58.53;33.40;;;-1.60;99.90;;;;;;5091089;28;20158;-56
2021/12/26 05:49:39;;;;;;;20.65;16.52;;;-1.60;99.90;;;;;;5090904;28;20360;-58
2021/12/26 05:52:05;;;;;;;16.98;12.60;;;-1.60;99.90;;;;;;5090966;28;20024;-56
2021/12/26 05:54:31;;;;;;;21.13;13.57;;;-1.60;99.90;;;;;;5090616;28;20131;-57
2021/12/26 05:56:57;;;;;;;17.13;10.75;;;-1.60;99.90;;;;;;5091219;28;20644;-57
2021/12/26 05:59:23;;;;;;;14.40;9.68;;;-1.60;99.90;;;;;;5090604;28;20433;-57
2021/12/26 06:01:49;;;;;;;20.23;9.65;;;-1.60;99.90;;;;;;5091144;28;20026;-57
2021/12/26 06:04:14;;;;;;;14.65;10.45;;;-1.60;99.90;;;;;;5090415;28;20113;-57
2021/12/26 06:06:40;;;;;;;18.70;9.75;;;-1.60;99.90;;;;;;5090231;28;20024;-57
2021/12/26 06:09:06;;;;;;;19.23;13.02;;;-1.60;99.90;;;;;;5090168;28;20509;-58
2021/12/26 06:11:33;;;;;;;20.83;12.25;;;-1.60;99.90;;;;;;5090429;28;20109;-58
2021/12/26 06:13:58;;;;;;;22.05;11.27;;;-1.60;99.90;;;;;;5090138;28;20020;-56
2021/12/26 06:16:24;;;;;;;15.93;9.57;;;-1.60;99.90;;;;;;5090580;28;20028;-58
2021/12/26 06:18:50;;;;;;;11.80;9.00;;;-1.60;99.90;;;;;;5072183;28;20024;-57
2021/12/26 06:21:15;;;;;;;16.90;9.98;;;-1.70;99.90;;;;;;5090261;28;20467;-57
2021/12/26 06:23:41;;;;;;;16.55;8.35;;;-1.70;99.90;;;;;;5089978;28;20052;-57
2021/12/26 06:26:07;;;;;;;15.00;8.80;;;-1.60;99.90;;;;;;5090219;28;20040;-58
2021/12/26 06:28:32;;;;;;;13.73;8.77;;;-1.80;99.90;;;;;;5090338;28;20103;-58
2021/12/26 06:30:58;;;;;;;14.25;9.65;;;-1.80;99.90;;;;;;5076067;28;20032;-57
2021/12/26 06:33:24;;;;;;;12.70;8.32;;;-1.90;99.90;;;;;;5096887;28;20020;-56
2021/12/26 06:35:52;;;;;;;17.48;9.40;;;-1.80;99.90;;;;;;5097080;28;20129;-58
2021/12/26 06:38:18;;;;;;;18.67;9.90;;;-1.80;99.90;;;;;;5096474;28;20395;-57
2021/12/26 06:40:44;;;;;;;17.40;10.75;;;-1.80;99.90;;;;;;5096518;28;20024;-58
2021/12/26 06:43:11;;;;;;;15.75;10.20;;;-1.80;99.90;;;;;;5097021;28;20024;-58
2021/12/26 06:45:37;;;;;;;15.82;11.02;;;-1.80;99.90;;;;;;5096642;28;20411;-57
2021/12/26 06:48:06;;;;;;;16.13;9.77;;;-1.80;99.90;;;;;;5096944;28;20031;-57
2021/12/26 06:50:31;;;;;;;21.17;10.13;;;-1.80;99.90;;;;;;5096596;28;20031;-58
2021/12/26 06:52:57;;;;;;;13.88;9.55;;;-1.90;99.90;;;;;;5078816;28;20032;-58
2021/12/26 06:55:23;;;;;;;13.70;9.18;;;-1.90;99.90;;;;;;5096499;28;20530;-56
2021/12/26 06:57:48;;;;;;;13.30;9.00;;;-1.90;99.90;;;;;;5096825;28;20483;-56
2021/12/26 07:00:16;;;;;;;16.70;9.43;;;-1.90;99.90;;;;;;5077899;28;20028;-56
2021/12/26 07:02:43;;;;;;;18.33;10.48;;;-1.90;99.90;;;;;;5096965;28;20027;-57
2021/12/26 07:05:12;;;;;;;13.57;8.77;;;-1.90;99.90;;;;;;5096739;28;20038;-56
2021/12/26 07:07:38;;;;;;;15.63;9.38;;;-1.80;99.90;;;;;;5096227;28;20437;-57
2021/12/26 07:10:05;;;;;;;13.70;10.52;;;-1.90;99.90;;;;;;5078531;28;20028;-58
2021/12/26 07:12:31;;;;;;;16.00;9.23;;;-1.90;99.90;;;;;;5096339;28;20040;-55
2021/12/26 07:14:56;;;;;;;13.85;9.80;;;-1.80;99.90;;;;;;5096319;28;20024;-57
2021/12/26 07:17:22;;;;;;;14.23;9.65;;;-1.80;99.90;;;;;;5078152;28;20039;-58
2021/12/26 07:19:48;;;;;;;14.10;9.75;;;-1.70;99.90;;;;;;5096345;28;20462;-56
2021/12/26 07:22:14;;;;;;;14.30;10.05;;;-1.70;99.90;;;;;;5096669;28;20036;-55
2021/12/26 07:24:43;;;;;;;14.98;9.20;;;-1.60;99.90;;;;;;5096272;28;20402;-57
2021/12/26 07:27:11;;;;;;;13.30;8.93;;;-1.70;99.90;;;;;;5096784;28;20058;-56
2021/12/26 07:29:37;;;;;;;15.60;9.95;;;-1.60;99.90;;;;;;5096227;28;20489;-57
2021/12/26 07:32:03;;;;;;;106.90;15.98;;;-1.70;99.90;;;;;;5096835;28;20040;-57
2021/12/26 07:34:29;;;;;;;16.20;8.80;;;-1.60;99.90;;;;;;5096147;28;20480;-56
2021/12/26 07:36:54;;;;;;;20.77;10.35;;;-1.60;99.90;;;;;;5096516;28;20112;-56
2021/12/26 07:39:20;;;;;;;23.23;10.13;;;-1.60;99.90;;;;;;5096224;28;20115;-57
2021/12/26 07:41:46;;;;;;;16.20;8.80;;;-1.50;99.90;;;;;;5094337;28;20103;-57
2021/12/26 07:44:11;;;;;;;70.35;17.67;;;-1.50;99.90;;;;;;5091743;28;20060;-56
2021/12/26 07:46:37;;;;;;;49.45;22.23;;;-1.60;99.90;;;;;;5092024;28;20028;-57
2021/12/26 07:49:03;;;;;;;28.13;17.63;;;-1.50;99.90;;;;;;5092654;28;20024;-57
2021/12/26 07:51:29;;;;;;;38.63;16.02;;;-1.40;99.90;;;;;;5072940;28;20032;-57
2021/12/26 07:53:59;;;;;;;18.25;11.02;;;-1.50;99.90;;;;;;5092380;28;20050;-56
2021/12/26 07:56:25;;;;;;;22.23;12.88;;;-1.40;99.90;;;;;;5092602;28;20028;-57
2021/12/26 07:58:50;;;;;;;15.45;9.23;;;-1.50;99.90;;;;;;5074693;28;20082;-57
2021/12/26 08:01:16;;;;;;;18.50;8.88;;;-1.50;99.90;;;;;;5092715;28;20031;-57
2021/12/26 08:03:42;;;;;;;14.00;9.38;;;-1.50;99.90;;;;;;5092939;28;20527;-57
2021/12/26 08:06:11;;;;;;;17.90;9.32;;;-1.50;99.90;;;;;;5092392;28;20039;-55
2021/12/26 08:08:38;;;;;;;16.98;9.85;;;-1.40;99.90;;;;;;5092675;28;20024;-56
2021/12/26 08:11:04;;;;;;;17.27;9.30;;;-1.40;99.90;;;;;;5092675;28;20032;-57
2021/12/26 08:13:31;;;;;;;31.95;16.52;;;-1.40;99.90;;;;;;5091883;28;20027;-56
2021/12/26 08:15:57;;;;;;;43.20;15.35;;;-1.30;99.90;;;;;;5092511;28;20030;-57
2021/12/26 08:18:22;;;;;;;45.47;14.77;;;-1.30;99.90;;;;;;5092096;28;20028;-55
2021/12/26 08:20:48;;;;;;;47.28;18.05;;;-1.10;99.90;;;;;;5092455;28;20028;-56
2021/12/26 08:23:14;;;;;;;15.13;9.63;;;-1.00;99.90;;;;;;5092246;28;20032;-57
2021/12/26 08:25:40;;;;;;;16.98;9.57;;;-1.10;99.90;;;;;;5092154;28;20024;-57
2021/12/26 08:28:05;;;;;;;19.92;9.95;;;-1.20;99.90;;;;;;5092567;28;20024;-57
2021/12/26 08:30:31;;;;;;;14.73;8.77;;;-1.20;99.90;;;;;;5091932;28;20039;-55
2021/12/26 08:33:04;;;;;;;14.45;9.85;;;-1.00;99.90;;;;;;5092446;28;20344;-55
2021/12/26 08:35:29;;;;;;;13.17;9.40;;;-0.90;99.90;;;;;;5092134;28;20244;-56
2021/12/26 08:37:55;;;;;;;12.35;8.43;;;-1.00;99.90;;;;;;5092202;28;20110;-57
2021/12/26 08:40:20;;;;;;;14.68;9.30;;;-0.80;99.90;;;;;;5092012;28;20039;-56
2021/12/26 08:42:46;;;;;;;23.98;9.82;;;-0.90;99.90;;;;;;5091895;28;20069;-56
2021/12/26 08:45:12;;;;;;;24.17;12.02;;;-0.80;99.90;;;;;;5091967;28;20551;-56
2021/12/26 08:47:38;;;;;;;17.23;9.00;;;-0.90;99.90;;;;;;5091248;28;20417;-57
2021/12/26 08:50:06;;;;;;;17.02;9.60;;;-0.80;99.90;;;;;;5091602;28;20017;-56
2021/12/26 08:52:31;;;;;;;15.07;8.70;;;-0.70;99.90;;;;;;5091017;28;20031;-57
2021/12/26 08:54:57;;;;;;;17.42;9.07;;;-0.60;99.90;;;;;;5091461;28;20040;-58
2021/12/26 08:57:22;;;;;;;16.38;9.50;;;-0.60;99.90;;;;;;5091192;28;20028;-56
2021/12/26 08:59:48;;;;;;;12.75;8.60;;;-0.50;99.90;;;;;;5091868;28;20111;-56
2021/12/26 09:02:14;;;;;;;14.13;9.20;;;-0.50;99.90;;;;;;5091310;28;20032;-56
2021/12/26 09:04:40;;;;;;;14.65;8.75;;;-0.60;99.90;;;;;;5091806;28;20028;-57
2021/12/26 09:07:07;;;;;;;11.80;7.30;;;-0.60;99.90;;;;;;5091782;28;20032;-56
2021/12/26 09:09:33;;;;;;;13.82;8.93;;;-0.60;99.90;;;;;;5091337;28;20027;-55
2021/12/26 09:11:59;;;;;;;14.63;8.40;;;-0.50;99.90;;;;;;5091870;28;20020;-57
2021/12/26 09:14:28;;;;;;;15.90;10.18;;;-0.30;99.90;;;;;;5072700;28;20497;-57
2021/12/26 09:16:54;;;;;;;16.35;10.10;;;-0.30;99.90;;;;;;5059865;28;20115;-57
2021/12/26 09:19:29;;;;;;;25.67;13.38;;;-0.40;99.90;;;;;;5073300;28;20534;-57
2021/12/26 09:21:57;;;;;;;73.05;53.40;;;-0.30;99.90;;;;;;5091480;28;20034;-57
2021/12/26 09:24:23;;;;;;;17.45;13.38;;;-0.20;99.90;;;;;;5091027;28;20043;-57
2021/12/26 09:26:48;;;;;;;22.60;13.65;;;-0.30;99.90;;;;;;5091227;28;20028;-54
2021/12/26 09:29:14;;;;;;;15.07;11.35;;;-0.30;99.90;;;;;;5090734;28;20035;-56
2021/12/26 09:31:40;;;;;;;25.52;22.02;;;-0.10;99.90;;;;;;5091346;28;20035;-57
2021/12/26 09:34:05;;;;;;;29.02;21.63;;;-0.20;99.90;;;;;;5090862;28;20511;-57
2021/12/26 09:36:32;;;;;;;24.30;17.98;;;0.00;99.90;;;;;;5090817;28;20103;-58
2021/12/26 09:38:58;;;;;;;19.35;14.18;;;0.00;99.90;;;;;;5090856;28;20081;-56
2021/12/26 09:41:24;;;;;;;25.75;22.30;;;0.40;99.90;;;;;;5090995;28;20020;-56
2021/12/26 09:43:50;;;;;;;18.55;13.25;;;0.30;99.90;;;;;;5090817;28;20034;-56
2021/12/26 09:46:16;;;;;;;10.70;8.48;;;0.30;99.90;;;;;;5090378;28;20035;-56
2021/12/26 09:48:41;;;;;;;15.07;9.77;;;0.40;99.90;;;;;;5091058;28;20262;-57
2021/12/26 09:51:07;;;;;;;14.23;9.90;;;0.40;99.90;;;;;;5090328;28;20032;-57
2021/12/26 09:53:38;;;;;;;13.32;9.73;;;0.60;99.90;;;;;;5090250;28;20425;-56
2021/12/26 09:56:06;;;;;;;14.07;8.95;;;0.80;99.90;;;;;;5090423;28;20044;-57
2021/12/26 09:58:32;;;;;;;15.82;9.23;;;0.70;99.90;;;;;;5090422;28;20047;-58
2021/12/26 10:00:57;;;;;;;15.95;10.00;;;0.40;99.90;;;;;;5090572;28;20032;-58
2021/12/26 10:03:33;;;;;;;14.00;9.27;;;0.60;99.90;;;;;;5090295;28;20051;-57
2021/12/26 10:06:18;;;;;;;31.73;16.73;;;0.40;99.90;;;;;;5089981;28;20020;-58
2021/12/26 10:08:54;;;;;;;31.40;20.13;;;0.80;99.90;;;;;;5090493;28;20359;-56
2021/12/26 10:11:22;;;;;;;17.55;11.52;;;1.10;99.90;;;;;;5090288;28;20436;-58
2021/12/26 10:13:57;;;;;;;18.13;13.52;;;0.90;99.90;;;;;;5090325;28;20024;-57
2021/12/26 10:16:27;;;;;;;19.02;13.38;;;0.80;99.90;;;;;;5090521;28;20035;-57
2021/12/26 10:18:54;;;;;;;20.27;12.35;;;0.80;99.90;;;;;;5072039;28;20106;-57
2021/12/26 10:21:42;;;;;;;21.17;17.67;;;0.60;99.90;;;;;;5052214;28;20571;-57
2021/12/26 10:24:30;;;;;;;17.55;10.85;;;0.50;99.90;;;;;;5053472;28;20029;-57
2021/12/26 10:27:14;;;;;;;17.38;11.10;;;0.50;99.90;;;;;;5090556;28;20047;-57
2021/12/26 10:29:51;;;;;;;14.93;10.93;;;1.00;99.90;;;;;;5090142;28;20028;-58
2021/12/26 10:32:21;;;;;;;18.23;11.25;;;1.20;99.90;;;;;;5090042;28;20020;-57
2021/12/26 10:34:50;;;;;;;20.55;14.52;;;1.40;99.90;;;;;;5090845;28;20111;-56
2021/12/26 10:37:34;;;;;;;16.65;11.65;;;1.40;99.90;;;;;;5091092;28;20020;-57
2021/12/26 10:43:21;;;;;;;20.95;13.15;;;1.70;99.90;;;;;;5043614;28;20116;-58
2021/12/26 10:45:46;;;;;;;31.23;18.33;;;1.40;99.90;;;;;;5090815;28;20119;-58
2021/12/26 10:48:12;;;;;;;28.92;20.20;;;1.30;99.90;;;;;;5090485;28;20074;-58
2021/12/26 10:50:40;;;;;;;23.52;17.30;;;1.10;99.90;;;;;;5091217;28;20667;-58
2021/12/26 10:53:09;;;;;;;22.85;16.17;;;0.80;99.90;;;;;;5090714;28;20032;-58
2021/12/26 10:55:46;;;;;;;17.33;10.15;;;0.40;99.90;;;;;;5090040;28;20048;-58
2021/12/26 10:58:15;;;;;;;17.25;10.45;;;0.50;99.90;;;;;;5073513;28;20040;-58
2021/12/26 11:00:43;;;;;;;15.93;10.82;;;0.50;99.90;;;;;;5089680;28;20024;-58
2021/12/26 11:03:10;;;;;;;15.48;11.30;;;0.60;99.90;;;;;;5089426;28;20035;-57
2021/12/26 11:05:42;;;;;;;21.95;12.55;;;0.60;99.90;;;;;;5090122;28;20118;-57
2021/12/26 11:08:12;;;;;;;18.88;12.02;;;0.80;99.90;;;;;;5090104;28;20368;-58
2021/12/26 11:10:41;;;;;;;19.10;11.18;;;0.60;99.90;;;;;;5087471;28;20103;-58
2021/12/26 11:13:16;;;;;;;17.20;11.07;;;0.60;99.90;;;;;;5069576;28;20048;-58
2021/12/26 11:15:42;;;;;;;18.38;11.55;;;0.70;99.90;;;;;;5069727;28;20012;-58
2021/12/26 11:18:10;;;;;;;34.30;17.48;;;0.70;99.90;;;;;;5071911;28;20034;-58
2021/12/26 11:20:42;;;;;;;55.38;25.95;;;0.60;99.90;;;;;;5070331;28;20028;-58
2021/12/26 11:23:16;;;;;;;103.32;49.15;;;0.40;99.90;;;;;;5094279;28;20028;-57
2021/12/26 11:25:46;;;;;;;78.75;33.88;;;0.10;99.90;;;;;;5094097;28;20387;-58
2021/12/26 11:28:14;;;;;;;24.85;13.38;;;0.10;99.90;;;;;;5092940;28;20059;-57
2021/12/26 11:30:44;;;;;;;75.30;34.15;;;0.00;99.90;;;;;;5094158;28;20054;-58
2021/12/26 11:33:12;;;;;;;79.50;36.28;;;-0.10;99.90;;;;;;5094167;28;20048;-58
2021/12/26 11:35:40;;;;;;;54.65;29.02;;;-0.10;99.90;;;;;;5093694;28;20077;-58
2021/12/26 11:38:15;;;;;;;42.15;22.48;;;-0.20;99.90;;;;;;5094357;28;20020;-58
2021/12/26 11:40:42;;;;;;;35.10;20.70;;;-0.30;99.90;;;;;;5093934;28;20036;-58
2021/12/26 11:43:19;;;;;;;17.55;12.10;;;-0.20;99.90;;;;;;5094072;28;20024;-58
2021/12/26 11:46:38;;;;;;;42.72;22.30;;;-0.20;99.90;;;;;;5087325;28;20395;-58
2021/12/26 11:49:35;;;;;;;19.98;12.35;;;0.00;99.90;;;;;;5047957;28;20344;-58
2021/12/26 11:52:00;;;;;;;21.92;13.75;;;0.00;99.90;;;;;;5094326;28;20032;-58
2021/12/26 11:54:32;;;;;;;17.95;12.00;;;0.10;99.90;;;;;;5093580;28;20467;-58
2021/12/26 11:57:04;;;;;;;18.08;11.68;;;-0.10;99.90;;;;;;5076024;28;20022;-58
2021/12/26 11:59:29;;;;;;;21.08;12.55;;;0.00;99.90;;;;;;5093804;28;20097;-58
2021/12/26 12:01:58;;;;;;;21.35;11.32;;;0.00;99.90;;;;;;5094160;28;20024;-58
2021/12/26 12:04:25;;;;;;;40.88;20.95;;;-0.20;99.90;;;;;;5093994;28;20402;-58
2021/12/26 12:06:55;;;;;;;27.65;16.35;;;-0.10;99.90;;;;;;5093979;28;20693;-57
2021/12/26 12:09:23;;;;;;;33.80;20.58;;;0.00;99.90;;;;;;5093638;28;20040;-58
2021/12/26 12:11:58;;;;;;;25.75;14.98;;;0.00;99.90;;;;;;5093701;28;20020;-57
2021/12/26 12:14:58;;;;;;;35.95;19.85;;;0.00;99.90;;;;;;5093714;28;20021;-58
2021/12/26 12:17:30;;;;;;;92.22;41.45;;;0.00;99.90;;;;;;5093527;28;20016;-58
2021/12/26 12:20:16;;;;;;;26.70;16.67;;;0.10;99.90;;;;;;5094025;28;20423;-58
2021/12/26 12:23:03;;;;;;;18.92;11.70;;;0.10;99.90;;;;;;5093440;28;20459;-58
2021/12/26 12:25:38;;;;;;;23.27;12.32;;;0.20;99.90;;;;;;5093553;28;20035;-58
2021/12/26 12:28:09;;;;;;;42.85;22.08;;;0.30;99.90;;;;;;5093123;28;20569;-58
2021/12/26 12:30:38;;;;;;;44.88;22.10;;;0.30;99.90;;;;;;5093302;28;20016;-58
2021/12/26 12:33:21;;;;;;;63.08;25.50;;;0.20;99.90;;;;;;5093533;28;20016;-58
2021/12/26 12:35:59;;;;;;;107.07;38.22;;;0.40;99.90;;;;;;5093443;28;20024;-56
2021/12/26 12:38:30;;;;;;;18.92;11.40;;;0.50;99.90;;;;;;5093115;28;20036;-57
2021/12/26 12:40:57;;;;;;;47.42;20.23;;;0.40;99.90;;;;;;5093230;28;20024;-58
2021/12/26 12:43:25;;;;;;;40.03;19.88;;;0.40;99.90;;;;;;5092953;28;20081;-57
2021/12/26 12:45:54;;;;;;;40.67;20.48;;;0.60;99.90;;;;;;5093440;28;20339;-58
2021/12/26 12:48:41;;;;;;;39.95;21.88;;;0.70;99.90;;;;;;5093004;28;20054;-57